Time;durP1;ratioP1;P1;durP2;ratioP2;P2;SDS_P1;SDS_P2;PMS_P1;PMS_P2;Temp;Humidity;BMP_temperature;BMP_pressure;BME280_temperature;BME280_humidity;BME280_pressure;Samples;Min_cycle;Max_cycle;Signal;HPM_P1;HPM_P2
2023/01/03 00:00:54;;;;;;;3.35;2.17;;;;;;;;;;5048593;28;20025;-72
2023/01/03 00:03:20;;;;;;;2.72;1.90;;;9.60;99.90;;;;;;5049039;28;20092;-73
2023/01/03 00:05:47;;;;;;;2.95;1.90;;;9.60;99.90;;;;;;5048410;28;20013;-72
2023/01/03 00:08:14;;;;;;;3.42;1.85;;;9.90;99.90;;;;;;5049107;28;20419;-72
2023/01/03 00:10:40;;;;;;;4.65;3.17;;;9.60;99.90;;;;;;5047784;28;20398;-72
2023/01/03 00:13:07;;;;;;;1.80;1.60;;;9.60;99.90;;;;;;5048778;28;20029;-73
2023/01/03 00:15:34;;;;;;;5.82;2.38;;;9.60;99.90;;;;;;5048497;28;20032;-72
2023/01/03 00:18:00;;;;;;;;;;;9.60;99.90;;;;;;5049354;28;20064;-73
2023/01/03 00:20:26;;;;;;;2.03;1.42;;;;;;;;;;5047948;28;20484;-73
2023/01/03 00:22:52;;;;;;;2.15;1.52;;;;;;;;;;5048705;28;20060;-72
2023/01/03 00:25:17;;;;;;;1.65;1.30;;;9.60;99.90;;;;;;5048900;28;20440;-73
2023/01/03 00:27:43;;;;;;;3.38;2.00;;;;;;;;;;5047274;28;20032;-72
2023/01/03 00:30:10;;;;;;;3.22;1.33;;;;;;;;;;5048366;28;20127;-72
2023/01/03 00:32:36;;;;;;;3.83;2.17;;;;;;;;;;5048413;28;20028;-73
2023/01/03 00:35:02;;;;;;;6.60;2.20;;;;;;;;;;5048082;28;20021;-73
2023/01/03 00:37:28;;;;;;;1.67;1.40;;;;;;;;;;5048452;28;20029;-72
2023/01/03 00:39:53;;;;;;;2.65;1.73;;;;;;;;;;5048299;28;20070;-72
2023/01/03 00:42:19;;;;;;;3.42;2.22;;;;;;;;;;5048046;28;20052;-72
2023/01/03 00:44:45;;;;;;;5.90;2.85;;;;;;;;;;5047984;28;20112;-72
2023/01/03 00:47:11;;;;;;;3.42;2.00;;;9.50;99.90;;;;;;5048058;28;20021;-72
2023/01/03 00:49:37;;;;;;;2.30;1.77;;;;;;;;;;5034813;28;20046;-72
2023/01/03 00:52:03;;;;;;;3.25;2.08;;;9.20;99.90;;;;;;5056062;28;20085;-73
2023/01/03 00:54:28;;;;;;;3.05;1.77;;;9.60;99.90;;;;;;5049642;28;20048;-73
2023/01/03 00:56:55;;;;;;;3.78;1.98;;;;;;;;;;5046605;28;20126;-73
2023/01/03 00:59:21;;;;;;;3.58;1.95;;;9.20;99.90;;;;;;5048101;28;20052;-72
2023/01/03 01:01:52;;;;;;;2.72;2.08;;;9.40;99.90;;;;;;5048037;28;20032;-72
2023/01/03 01:04:21;;;;;;;2.60;1.88;;;9.40;99.90;;;;;;5047532;28;20498;-72
2023/01/03 01:06:51;;;;;;;3.78;1.75;;;9.30;99.90;;;;;;5048044;28;20558;-72
2023/01/03 01:09:20;;;;;;;2.42;1.50;;;9.30;99.90;;;;;;5045341;28;20414;-72
2023/01/03 01:11:47;;;;;;;1.92;1.58;;;;;;;;;;5045385;28;20394;-72
2023/01/03 01:14:19;;;;;;;3.03;2.05;;;9.00;99.90;;;;;;5047222;28;20036;-72
2023/01/03 01:16:50;;;;;;;2.20;1.88;;;9.40;99.90;;;;;;5047594;28;20082;-72
2023/01/03 01:19:18;;;;;;;3.67;2.05;;;9.50;99.90;;;;;;5046626;28;20048;-72
2023/01/03 01:21:44;;;;;;;2.75;1.63;;;9.50;99.90;;;;;;5047602;28;20025;-72
2023/01/03 01:24:11;;;;;;;3.22;2.25;;;9.50;99.90;;;;;;5047240;28;20120;-73
2023/01/03 01:26:37;;;;;;;3.28;1.73;;;;;;;;;;5047810;28;20079;-73
2023/01/03 01:29:03;;;;;;;2.90;1.73;;;9.50;99.90;;;;;;5046232;28;20033;-72
2023/01/03 01:31:30;;;;;;;3.67;1.70;;;9.30;99.90;;;;;;5047124;28;20542;-72
2023/01/03 01:33:55;;;;;;;3.35;1.83;;;9.20;99.90;;;;;;5047590;28;20033;-73
2023/01/03 01:36:30;;;;;;;3.40;2.28;;;9.30;99.90;;;;;;5047412;28;20448;-72
2023/01/03 01:39:16;;;;;;;1.80;1.50;;;9.40;99.90;;;;;;5046192;28;20027;-72
2023/01/03 01:44:42;;;;;;;4.85;2.13;;;9.50;99.90;;;;;;5046584;28;20059;-72
2023/01/03 01:47:23;;;;;;;2.10;1.80;;;9.50;99.90;;;;;;5045822;28;20028;-72
2023/01/03 01:49:53;;;;;;;3.33;1.80;;;9.40;99.90;;;;;;5047052;28;20103;-73
2023/01/03 01:52:20;;;;;;;2.45;1.67;;;9.90;99.90;;;;;;5047302;28;20029;-73
2023/01/03 01:54:48;;;;;;;2.03;1.70;;;9.20;99.90;;;;;;5046701;28;20514;-73
2023/01/03 01:57:18;;;;;;;4.07;2.00;;;9.20;99.90;;;;;;5047317;28;20037;-73
2023/01/03 01:59:45;;;;;;;2.17;1.95;;;9.10;99.90;;;;;;5046983;28;20082;-72
2023/01/03 02:02:12;;;;;;;3.33;1.55;;;9.10;99.90;;;;;;5046809;28;20506;-73
2023/01/03 02:04:38;;;;;;;;;;;9.10;99.90;;;;;;5048003;28;20029;-72
2023/01/03 02:07:06;;;;;;;2.80;1.85;;;9.10;99.90;;;;;;5062068;28;19962;-73
2023/01/03 02:09:33;;;;;;;7.97;2.38;;;;;;;;;;5046864;28;20029;-73
2023/01/03 02:15:28;;;;;;;2.58;1.75;;;9.10;99.90;;;;;;5046927;28;20078;-73
2023/01/03 02:18:21;;;;;;;1.63;1.42;;;9.10;99.90;;;;;;5046980;28;20053;-72
2023/01/03 02:21:16;;;;;;;2.92;1.83;;;9.10;99.90;;;;;;5045659;28;20060;-73
2023/01/03 02:24:16;;;;;;;3.03;2.20;;;9.20;99.90;;;;;;5045315;28;20138;-73
2023/01/03 02:26:45;;;;;;;2.67;1.98;;;8.90;99.90;;;;;;4984959;28;20338;-72
2023/01/03 02:29:47;;;;;;;3.75;1.50;;;9.20;99.90;;;;;;4984736;28;20038;-72
2023/01/03 02:32:24;;;;;;;3.00;1.67;;;9.20;99.90;;;;;;4984483;28;20530;-72
2023/01/03 02:34:56;;;;;;;2.17;1.80;;;9.10;99.90;;;;;;4985201;28;20081;-72
2023/01/03 02:37:40;;;;;;;2.72;1.75;;;9.10;99.90;;;;;;4984894;28;20050;-73
2023/01/03 02:40:33;;;;;;;1.77;1.38;;;9.10;99.90;;;;;;4985057;28;20105;-72
2023/01/03 02:43:17;;;;;;;2.10;1.63;;;9.10;99.90;;;;;;4984545;28;20042;-72
2023/01/03 02:46:16;;;;;;;3.40;0.93;;;9.10;99.90;;;;;;4984564;28;20039;-72
2023/01/03 02:49:04;;;;;;;1.17;1.08;;;9.00;99.90;;;;;;4968208;28;20044;-72
2023/01/03 02:51:55;;;;;;;2.08;1.05;;;9.30;99.90;;;;;;4983905;28;20514;-72
2023/01/03 02:54:27;;;;;;;2.60;1.10;;;9.40;99.90;;;;;;4984877;28;20038;-73
2023/01/03 02:57:07;;;;;;;1.65;0.85;;;9.00;99.90;;;;;;4984761;28;20053;-72
2023/01/03 02:59:59;;;;;;;1.70;0.80;;;9.00;99.90;;;;;;4984714;28;20060;-73
2023/01/03 03:02:31;;;;;;;0.80;0.80;;;8.80;99.90;;;;;;5007169;28;20041;-72
2023/01/03 03:04:57;;;;;;;0.60;0.60;;;;;;;;;;5046429;28;20032;-73
2023/01/03 03:07:28;;;;;;;0.65;0.65;;;8.70;99.90;;;;;;5046690;28;20344;-72
2023/01/03 03:15:53;;;;;;;0.60;0.60;;;8.90;99.90;;;;;;5045772;28;20044;-72
2023/01/03 03:18:27;;;;;;;0.90;0.80;;;8.90;99.90;;;;;;5050173;28;20445;-73
2023/01/03 03:26:39;;;;;;;2.28;1.05;;;8.90;99.90;;;;;;5039806;28;20078;-73
2023/01/03 03:29:10;;;;;;;1.17;1.00;;;8.90;99.90;;;;;;5049549;28;20021;-73
2023/01/03 03:31:41;;;;;;;2.33;1.15;;;8.80;99.90;;;;;;5049982;28;20029;-72
2023/01/03 03:34:07;;;;;;;1.15;0.90;;;;;;;;;;5049809;28;20024;-73
2023/01/03 03:36:59;;;;;;;1.02;0.95;;;8.80;99.90;;;;;;5049999;28;20037;-72
2023/01/03 03:45:44;;;;;;;0.60;0.60;;;8.60;99.90;;;;;;5006408;28;20693;-72
2023/01/03 03:48:27;;;;;;;1.02;0.68;;;9.30;99.90;;;;;;5007068;28;20105;-73
2023/01/03 03:51:05;;;;;;;3.25;0.82;;;8.30;99.90;;;;;;5007275;28;20038;-73
2023/01/03 03:53:34;;;;;;;0.60;0.60;;;8.50;99.90;;;;;;5006642;28;20026;-73
2023/01/03 03:56:09;;;;;;;0.63;0.63;;;8.80;99.90;;;;;;5005062;28;20040;-72
2023/01/03 03:58:56;;;;;;;0.60;0.60;;;8.70;99.90;;;;;;5006430;28;20037;-72
2023/01/03 04:01:23;;;;;;;0.60;0.60;;;8.60;99.90;;;;;;5006856;28;20038;-73
2023/01/03 04:03:50;;;;;;;;;;;8.70;99.90;;;;;;5007085;28;21031;-73
2023/01/03 04:06:39;;;;;;;0.70;0.70;;;8.50;99.90;;;;;;5006528;28;19992;-72
2023/01/03 04:09:05;;;;;;;2.10;1.02;;;;;;;;;;5006687;28;20068;-72
2023/01/03 04:11:31;;;;;;;0.60;0.60;;;;;;;;;;5006490;28;20113;-72
2023/01/03 04:13:57;;;;;;;0.60;0.60;;;8.40;99.90;;;;;;5005937;28;20097;-73
2023/01/03 04:16:23;;;;;;;0.50;0.50;;;;;;;;;;5006356;28;20288;-73
2023/01/03 04:18:49;;;;;;;0.65;0.65;;;;;;;;;;5014664;28;20053;-72
2023/01/03 04:21:15;;;;;;;0.90;0.90;;;8.60;99.90;;;;;;5047429;28;20024;-72
2023/01/03 04:23:40;;;;;;;1.08;0.70;;;8.80;99.90;;;;;;5048854;28;20044;-73
2023/01/03 04:26:06;;;;;;;0.50;0.50;;;8.80;99.90;;;;;;5048569;28;20025;-72
2023/01/03 04:28:32;;;;;;;1.85;0.70;;;;;;;;;;5048732;28;20040;-72
2023/01/03 04:30:58;;;;;;;0.70;0.70;;;8.60;99.90;;;;;;5048331;28;20021;-73
2023/01/03 04:33:24;;;;;;;0.60;0.60;;;;;;;;;;5048885;28;20580;-72
2023/01/03 04:35:49;;;;;;;0.50;0.50;;;;;;;;;;5048360;28;20383;-72
2023/01/03 04:38:16;;;;;;;0.50;0.50;;;8.80;99.90;;;;;;5048465;28;20029;-72
2023/01/03 04:40:42;;;;;;;0.57;0.57;;;9.30;99.90;;;;;;5035169;28;20033;-72
2023/01/03 04:45:54;;;;;;;0.60;0.57;;;;;;;;;;5048438;28;20110;-73
2023/01/03 04:48:20;;;;;;;0.50;0.50;;;;;;;;;;5048003;28;20063;-72
2023/01/03 04:50:57;;;;;;;0.68;0.68;;;8.80;99.90;;;;;;5048378;28;20029;-72
2023/01/03 04:53:25;;;;;;;2.10;0.85;;;8.80;99.90;;;;;;5048103;28;20021;-73
2023/01/03 04:55:51;;;;;;;1.15;0.70;;;8.80;99.90;;;;;;5046515;28;20557;-72
2023/01/03 04:58:17;;;;;;;1.05;0.77;;;;;;;;;;5047857;28;20063;-72
2023/01/03 05:00:44;;;;;;;0.40;0.40;;;;;;;;;;5059256;28;20028;-72
2023/01/03 05:03:09;;;;;;;0.52;0.52;;;8.60;99.90;;;;;;5047639;28;20043;-73
2023/01/03 05:05:36;;;;;;;1.55;0.70;;;8.70;99.90;;;;;;5048115;28;20029;-72
2023/01/03 05:08:06;;;;;;;1.47;0.70;;;8.70;99.90;;;;;;5048554;28;20032;-72
2023/01/03 05:10:33;;;;;;;2.85;1.08;;;;;;;;;;5047636;28;20040;-73
2023/01/03 05:12:59;;;;;;;2.40;0.60;;;8.40;99.90;;;;;;5047616;28;20340;-73
2023/01/03 05:15:26;;;;;;;0.85;0.60;;;8.50;99.90;;;;;;5047623;28;20383;-72
2023/01/03 05:17:52;;;;;;;1.60;1.02;;;;;;;;;;5047658;28;20024;-72
2023/01/03 05:25:49;;;;;;;3.03;1.00;;;;;;;;;;5047237;28;20032;-72
2023/01/03 05:28:19;;;;;;;0.95;0.75;;;8.60;99.90;;;;;;5047644;28;20028;-73
2023/01/03 05:30:45;;;;;;;1.27;1.10;;;;;;;;;;5047241;28;20032;-72
2023/01/03 05:33:11;;;;;;;1.20;0.95;;;;;;;;;;5047535;28;20774;-72
2023/01/03 05:35:37;;;;;;;0.63;0.63;;;;;;;;;;5047437;28;20044;-72
2023/01/03 05:38:03;;;;;;;0.85;0.85;;;;;;;;;;5047609;28;20439;-72
2023/01/03 05:40:29;;;;;;;0.90;0.90;;;;;;;;;;5046318;28;20036;-72
2023/01/03 05:42:55;;;;;;;2.10;1.23;;;;;;;;;;5047351;28;20049;-72
2023/01/03 05:45:24;;;;;;;0.68;0.68;;;;;;;;;;5046806;28;20455;-72
2023/01/03 05:47:51;;;;;;;1.02;0.77;;;8.50;99.90;;;;;;5046490;28;20033;-72
2023/01/03 05:50:17;;;;;;;2.63;1.05;;;8.60;99.90;;;;;;5047016;28;20097;-72
2023/01/03 05:52:43;;;;;;;0.85;0.85;;;;;;;;;;5047339;28;20036;-72
2023/01/03 05:55:09;;;;;;;2.35;1.27;;;;;;;;;;5047200;28;20020;-72
2023/01/03 05:57:35;;;;;;;1.13;0.90;;;;;;;;;;5047267;28;20028;-72
2023/01/03 06:00:03;;;;;;;1.00;0.90;;;8.60;99.90;;;;;;5047130;28;20469;-72
2023/01/03 06:02:28;;;;;;;1.90;1.27;;;8.40;99.90;;;;;;5047342;28;20047;-72
2023/01/03 06:04:54;;;;;;;1.20;1.10;;;8.50;99.90;;;;;;5042230;28;20037;-72
2023/01/03 06:07:20;;;;;;;1.25;1.05;;;;;;;;;;5042864;28;20018;-72
2023/01/03 06:09:46;;;;;;;2.60;1.25;;;;;;;;;;5038030;28;20032;-73
2023/01/03 06:12:12;;;;;;;1.02;0.70;;;;;;;;;;5045158;28;20024;-73
2023/01/03 06:14:38;;;;;;;1.50;0.60;;;;;;;;;;5043231;28;20071;-72
2023/01/03 06:19:48;;;;;;;0.95;0.75;;;8.80;99.90;;;;;;5044641;28;21639;-72
2023/01/03 06:22:14;;;;;;;1.58;1.20;;;;;;;;;;5043447;28;20025;-72
2023/01/03 06:24:40;;;;;;;1.30;1.15;;;;;;;;;;5043839;28;20036;-72
2023/01/03 06:27:06;;;;;;;1.42;0.90;;;;;;;;;;5039085;28;20028;-73
2023/01/03 06:29:32;;;;;;;4.07;1.42;;;;;;;;;;5040941;28;20025;-73
2023/01/03 06:31:58;;;;;;;5.10;1.85;;;;;;;;;;5043450;28;20040;-72
2023/01/03 06:34:24;;;;;;;6.72;2.03;;;;;;;;;;5044274;28;20540;-72
2023/01/03 06:36:49;;;;;;;2.08;1.25;;;;;;;;;;5044402;28;20052;-76
2023/01/03 06:39:15;;;;;;;1.65;1.00;;;;;;;;;;5045093;28;20017;-75
2023/01/03 06:41:41;;;;;;;0.77;0.77;;;;;;;;;;5034871;28;20033;-74
2023/01/03 06:44:09;;;;;;;2.88;1.05;;;8.70;99.90;;;;;;5042004;28;20041;-76
2023/01/03 06:54:54;;;;;;;1.77;1.25;;;;;;;;;;5047234;28;20112;-73
2023/01/03 06:57:20;;;;;;;1.35;0.88;;;;;;;;;;5045875;28;20076;-74
2023/01/03 06:59:46;;;;;;;2.47;1.27;;;;;;;;;;5049252;28;20040;-73
2023/01/03 07:02:12;;;;;;;2.72;1.38;;;;;;;;;;5049368;28;20140;-73
2023/01/03 07:04:38;;;;;;;3.53;1.90;;;;;;;;;;5053179;28;20033;-74
2023/01/03 07:07:04;;;;;;;2.88;1.33;;;;;;;;;;5049307;28;20449;-73
2023/01/03 07:09:30;;;;;;;2.17;1.13;;;9.10;99.90;;;;;;5048657;28;20025;-73
2023/01/03 07:11:56;;;;;;;3.95;1.83;;;;;;;;;;5048322;28;20017;-74
2023/01/03 07:14:22;;;;;;;2.70;1.52;;;8.60;99.90;;;;;;5039139;28;20106;-74
2023/01/03 07:16:48;;;;;;;2.67;1.80;;;8.80;99.90;;;;;;5049197;28;20029;-74
2023/01/03 07:19:16;;;;;;;3.10;2.50;;;8.70;99.90;;;;;;5045926;28;20457;-73
2023/01/03 07:21:42;;;;;;;2.88;1.50;;;9.20;99.90;;;;;;5049029;28;20060;-73
2023/01/03 07:24:11;;;;;;;2.35;1.42;;;8.70;99.90;;;;;;5048559;28;20033;-73
2023/01/03 07:26:37;;;;;;;3.30;2.15;;;8.60;99.90;;;;;;5049094;28;20044;-73
2023/01/03 07:29:08;;;;;;;1.85;1.45;;;9.00;99.90;;;;;;5048479;28;20687;-74
2023/01/03 07:31:37;;;;;;;1.38;1.15;;;8.30;99.90;;;;;;5048597;28;20056;-74
2023/01/03 07:34:03;;;;;;;2.35;1.42;;;;;;;;;;5048880;28;20478;-74
2023/01/03 07:36:29;;;;;;;1.50;1.10;;;;;;;;;;5048337;28;20096;-74
2023/01/03 07:38:55;;;;;;;5.72;1.65;;;;;;;;;;5048271;28;20054;-73
2023/01/03 07:41:21;;;;;;;1.38;1.23;;;8.50;99.90;;;;;;5048871;28;20440;-75
2023/01/03 07:43:48;;;;;;;1.08;0.82;;;8.80;99.90;;;;;;5048196;28;20055;-74
2023/01/03 07:46:15;;;;;;;3.65;1.40;;;8.90;99.90;;;;;;5048387;28;20017;-75
2023/01/03 07:48:41;;;;;;;1.25;1.00;;;;;;;;;;5049088;28;20108;-74
2023/01/03 07:51:09;;;;;;;2.22;1.52;;;9.10;99.90;;;;;;5048467;28;20086;-75
2023/01/03 07:53:35;;;;;;;2.45;2.25;;;;;;;;;;5048214;28;20044;-74
2023/01/03 07:56:06;;;;;;;2.50;1.52;;;9.10;99.90;;;;;;5048826;28;20041;-74
2023/01/03 07:58:32;;;;;;;3.15;1.70;;;9.10;99.90;;;;;;5048437;28;20460;-74
2023/01/03 08:01:02;;;;;;;2.95;1.40;;;9.10;99.90;;;;;;5048482;28;20635;-74
2023/01/03 08:03:28;;;;;;;3.65;1.98;;;;;;;;;;5047624;28;20120;-74
2023/01/03 08:05:54;;;;;;;4.40;2.03;;;9.30;99.90;;;;;;5048388;28;20029;-74
2023/01/03 08:08:20;;;;;;;4.07;1.77;;;;;;;;;;5048004;28;20025;-75
2023/01/03 08:13:30;;;;;;;1.83;1.67;;;9.30;99.90;;;;;;5037452;28;20111;-75
2023/01/03 08:15:56;;;;;;;3.40;2.20;;;;;;;;;;5046879;28;20033;-72
2023/01/03 08:18:25;;;;;;;3.13;1.80;;;9.60;99.90;;;;;;5047592;28;20445;-76
2023/01/03 08:20:53;;;;;;;3.65;2.22;;;;;;;;;;5046602;28;20550;-77
2023/01/03 08:23:19;;;;;;;2.05;1.42;;;;;;;;;;5046496;28;20037;-76
2023/01/03 08:25:45;;;;;;;5.70;2.08;;;;;;;;;;5047574;28;20084;-73
2023/01/03 08:28:11;;;;;;;4.47;1.92;;;;;;;;;;5047935;28;20071;-73
2023/01/03 08:30:44;;;;;;;3.60;1.77;;;9.90;99.90;;;;;;5046811;28;20040;-73
2023/01/03 08:33:13;;;;;;;5.72;3.28;;;9.90;99.90;;;;;;5047516;28;20025;-73
2023/01/03 08:35:43;;;;;;;4.78;2.60;;;10.00;99.90;;;;;;5047415;28;20032;-73
2023/01/03 08:38:13;;;;;;;34.63;12.68;;;10.30;99.90;;;;;;5047324;28;20050;-73
2023/01/03 08:40:40;;;;;;;29.40;12.18;;;10.40;99.90;;;;;;5047541;28;20100;-73
2023/01/03 08:43:06;;;;;;;;;;;10.40;99.90;;;;;;5048162;28;20052;-73
2023/01/03 08:45:32;;;;;;;11.52;4.57;;;11.00;99.90;;;;;;5047305;28;20351;-73
2023/01/03 08:48:02;;;;;;;6.18;2.78;;;12.40;99.90;;;;;;5047308;28;20071;-73
2023/01/03 08:50:29;;;;;;;9.10;4.38;;;12.40;99.90;;;;;;5046953;28;20040;-73
2023/01/03 08:52:56;;;;;;;6.93;4.07;;;;;;;;;;5047345;28;20025;-73
2023/01/03 08:55:22;;;;;;;5.20;3.17;;;;;;;;;;5047703;28;20056;-73
2023/01/03 08:57:48;;;;;;;5.85;3.05;;;;;;;;;;5047350;28;20055;-73
2023/01/03 09:00:14;;;;;;;7.88;4.10;;;;;;;;;;5047084;28;20463;-73
2023/01/03 09:02:40;;;;;;;4.45;2.65;;;;;;;;;;5051242;28;20052;-74
2023/01/03 09:05:07;;;;;;;5.00;2.97;;;16.30;97.80;;;;;;5047045;28;20106;-73
2023/01/03 09:07:33;;;;;;;7.30;3.00;;;;;;;;;;5046438;28;20033;-74
2023/01/03 09:09:59;;;;;;;5.38;2.47;;;;;;;;;;5042949;28;20040;-75
2023/01/03 09:12:25;;;;;;;4.38;2.70;;;;;;;;;;5046723;28;20112;-75
2023/01/03 09:14:51;;;;;;;2.47;2.13;;;;;;;;;;5045640;28;20025;-75
2023/01/03 09:17:17;;;;;;;5.43;2.65;;;;;;;;;;5045725;28;20025;-73
2023/01/03 09:19:43;;;;;;;3.40;2.70;;;;;;;;;;5045962;28;20061;-73
2023/01/03 09:22:09;;;;;;;6.15;2.65;;;15.90;94.20;;;;;;5037240;28;20067;-71
2023/01/03 09:24:35;;;;;;;3.55;2.08;;;;;;;;;;5046625;28;20045;-76
2023/01/03 09:27:01;;;;;;;3.72;2.42;;;;;;;;;;5046520;28;20021;-74
2023/01/03 09:29:27;;;;;;;3.97;3.05;;;;;;;;;;5041773;28;20061;-74
2023/01/03 09:31:53;;;;;;;5.35;3.00;;;;;;;;;;5040540;28;20032;-74
2023/01/03 09:34:19;;;;;;;3.30;2.13;;;;;;;;;;5045915;28;20474;-74
2023/01/03 09:36:45;;;;;;;3.88;2.38;;;;;;;;;;5046446;28;20070;-74
2023/01/03 09:39:11;;;;;;;4.30;2.08;;;;;;;;;;5046274;28;20028;-73
2023/01/03 09:41:38;;;;;;;2.65;1.90;;;19.40;74.70;;;;;;5045332;28;20025;-74
2023/01/03 09:44:05;;;;;;;;;;;19.40;75.10;;;;;;5045897;28;20110;-73
2023/01/03 09:46:34;;;;;;;1.95;1.63;;;22.10;66.00;;;;;;5045963;28;19933;-74
2023/01/03 09:49:02;;;;;;;4.80;2.38;;;23.60;61.50;;;;;;5046578;28;20021;-74
2023/01/03 10:03:44;;;;;;;4.65;2.70;;;21.10;61.20;;;;;;5046083;28;20156;-73
2023/01/03 10:06:28;;;;;;;3.25;1.77;;;22.60;56.20;;;;;;5045788;28;20025;-74
2023/01/03 10:08:54;;;;;;;1.83;1.40;;;;;;;;;;5045695;28;20032;-74
2023/01/03 10:11:30;;;;;;;3.53;1.52;;;21.00;58.80;;;;;;5045879;28;20021;-74
2023/01/03 10:14:12;;;;;;;1.30;1.20;;;20.90;63.40;;;;;;5045254;28;20056;-74
2023/01/03 10:17:45;;;;;;;2.92;1.45;;;20.80;73.80;;;;;;5034453;28;20029;-74
2023/01/03 10:20:41;;;;;;;3.22;1.38;;;20.00;62.00;;;;;;4993434;28;20053;-74
2023/01/03 10:23:08;;;;;;;2.67;1.70;;;;;;;;;;4986757;28;20481;-74
2023/01/03 10:25:41;;;;;;;2.03;1.60;;;21.10;62.60;;;;;;5003105;28;20081;-74
2023/01/03 10:28:20;;;;;;;2.08;1.60;;;21.50;56.60;;;;;;5002810;28;20030;-74
2023/01/03 10:31:11;;;;;;;1.67;1.38;;;22.50;55.70;;;;;;5002943;28;20030;-75
2023/01/03 10:33:44;;;;;;;1.95;1.20;;;24.10;52.40;;;;;;5002910;28;20074;-77
2023/01/03 10:36:10;;;;;;;2.60;1.88;;;;;;;;;;5000895;28;20058;-78
2023/01/03 10:38:37;;;;;;;2.08;1.02;;;20.00;54.20;;;;;;5002843;28;20057;-77
2023/01/03 10:41:04;;;;;;;1.77;1.23;;;18.90;57.40;;;;;;5002984;28;20573;-78
2023/01/03 10:43:39;;;;;;;3.72;2.58;;;20.20;59.30;;;;;;5001914;28;20058;-74
2023/01/03 10:46:14;;;;;;;1.50;1.40;;;24.40;52.80;;;;;;5002514;28;20099;-74
2023/01/03 10:48:47;;;;;;;2.88;1.60;;;27.80;47.60;;;;;;5002808;28;20610;-73
2023/01/03 10:51:41;;;;;;;2.38;1.48;;;30.30;43.70;;;;;;5020440;28;20041;-74
2023/01/03 10:54:28;;;;;;;1.90;1.00;;;28.80;42.30;;;;;;5045107;28;20517;-74
2023/01/03 10:56:54;;;;;;;2.72;1.52;;;25.00;48.20;;;;;;5045497;28;20029;-74
2023/01/03 10:59:31;;;;;;;4.35;1.77;;;25.70;47.00;;;;;;5044762;28;20032;-74
2023/01/03 11:01:57;;;;;;;2.35;1.55;;;;;;;;;;5046159;28;20068;-74
2023/01/03 11:04:23;;;;;;;1.63;1.27;;;30.40;40.60;;;;;;5049080;28;20040;-74
2023/01/03 11:07:12;;;;;;;2.33;1.07;;;30.00;39.20;;;;;;5053123;28;20021;-73
2023/01/03 11:09:49;;;;;;;1.30;0.70;;;28.30;38.70;;;;;;5041915;28;21123;-73
2023/01/03 11:12:15;;;;;;;1.77;0.95;;;;;;;;;;5044809;28;20017;-74
2023/01/03 11:14:49;;;;;;;1.63;1.02;;;22.10;46.50;;;;;;5044782;28;20108;-74
2023/01/03 11:17:19;;;;;;;2.22;1.48;;;20.70;49.80;;;;;;5045577;28;20062;-74
2023/01/03 11:19:45;;;;;;;2.03;1.83;;;22.00;58.20;;;;;;5043952;28;20021;-74
2023/01/03 11:22:54;;;;;;;2.65;2.45;;;24.20;44.50;;;;;;5045408;28;20029;-74
2023/01/03 11:25:20;;;;;;;10.27;6.38;;;;;;;;;;5045188;28;20041;-74
2023/01/03 11:28:16;;;;;;;4.65;3.08;;;28.80;41.80;;;;;;5044704;28;20021;-74
2023/01/03 11:30:47;;;;;;;4.72;2.90;;;29.90;39.60;;;;;;5045128;28;20025;-73
2023/01/03 11:33:21;;;;;;;3.63;2.30;;;30.30;37.10;;;;;;5044963;28;20549;-74
2023/01/03 11:36:11;;;;;;;1.63;1.20;;;30.20;36.40;;;;;;5044980;28;20031;-74
2023/01/03 11:38:46;;;;;;;2.05;1.30;;;29.90;36.70;;;;;;5045843;28;20041;-73
2023/01/03 11:41:19;;;;;;;1.90;1.30;;;;;;;;;;5048771;28;20052;-74
2023/01/03 11:44:19;;;;;;;1.67;0.90;;;30.70;40.90;;;;;;5048146;28;20041;-74
2023/01/03 11:47:03;;;;;;;2.13;1.48;;;30.20;35.40;;;;;;5048685;28;20028;-74
2023/01/03 11:49:56;;;;;;;1.80;0.70;;;29.60;41.10;;;;;;5048168;28;20052;-74
2023/01/03 11:52:38;;;;;;;1.15;0.80;;;29.20;40.30;;;;;;5040894;28;20041;-74
2023/01/03 11:55:37;;;;;;;1.27;0.90;;;28.40;36.70;;;;;;5048253;28;20087;-74
2023/01/03 11:58:43;;;;;;;1.42;0.98;;;27.90;37.70;;;;;;5046595;28;20904;-74
2023/01/03 12:01:09;;;;;;;2.03;1.17;;;;;;;;;;5005886;28;20040;-74
2023/01/03 12:03:56;;;;;;;1.10;0.88;;;26.80;38.80;;;;;;5005836;28;20045;-74
2023/01/03 12:06:40;;;;;;;;;;;26.40;38.90;;;;;;5006201;28;20139;-74
2023/01/03 12:09:30;;;;;;;1.38;0.90;;;26.00;38.80;;;;;;5005420;28;20096;-74
2023/01/03 12:12:27;;;;;;;1.73;1.02;;;25.20;39.70;;;;;;5005535;28;20053;-75
2023/01/03 12:14:58;;;;;;;0.85;0.73;;;25.10;40.30;;;;;;5005234;28;20583;-74
2023/01/03 12:17:24;;;;;;;1.95;0.65;;;;;;;;;;5005565;28;20097;-73
2023/01/03 12:20:27;;;;;;;1.17;0.65;;;24.90;39.90;;;;;;5005305;28;20030;-74
2023/01/03 12:22:53;;;;;;;2.20;0.93;;;;;;;;;;5004858;28;20088;-74
2023/01/03 12:25:19;;;;;;;1.50;0.93;;;;;;;;;;5005337;28;20042;-74
2023/01/03 12:28:26;;;;;;;1.23;0.65;;;20.70;47.90;;;;;;5004818;28;20119;-74
2023/01/03 12:31:07;;;;;;;0.52;0.50;;;18.70;48.30;;;;;;4997794;28;20034;-74
2023/01/03 12:33:42;;;;;;;0.60;0.60;;;17.80;50.20;;;;;;5005288;28;20121;-73
2023/01/03 12:36:23;;;;;;;1.38;1.25;;;17.20;52.50;;;;;;5035351;28;20047;-74
2023/01/03 12:38:58;;;;;;;2.13;1.00;;;15.90;53.90;;;;;;5047796;28;20032;-73
2023/01/03 12:41:42;;;;;;;1.58;0.80;;;15.70;54.10;;;;;;5046919;28;20490;-73
2023/01/03 12:44:24;;;;;;;4.78;0.98;;;15.40;56.10;;;;;;5041180;28;20510;-73
2023/01/03 12:46:54;;;;;;;1.60;0.90;;;14.80;56.20;;;;;;5047579;28;20017;-73
2023/01/03 12:49:35;;;;;;;1.35;0.77;;;14.50;56.90;;;;;;5047049;28;20017;-74
2023/01/03 12:52:01;;;;;;;1.50;0.80;;;;;;;;;;5047255;28;20028;-76
2023/01/03 12:54:41;;;;;;;0.88;0.88;;;13.90;58.90;;;;;;5047203;28;20025;-77
2023/01/03 12:57:12;;;;;;;1.27;1.00;;;13.70;59.50;;;;;;5047184;28;20063;-76
2023/01/03 12:59:53;;;;;;;3.33;1.00;;;13.60;60.20;;;;;;5047061;28;20024;-76
2023/01/03 13:02:49;;;;;;;1.30;0.82;;;13.20;68.90;;;;;;5046603;28;20083;-73
2023/01/03 13:05:53;;;;;;;1.88;0.90;;;13.30;61.20;;;;;;5041528;28;20081;-76
2023/01/03 13:08:33;;;;;;;1.58;0.90;;;13.20;64.30;;;;;;4984482;28;20026;-76
2023/01/03 13:11:06;;;;;;;4.03;0.73;;;13.10;65.70;;;;;;4983857;28;20034;-75
2023/01/03 13:13:34;;;;;;;0.80;0.80;;;13.00;62.80;;;;;;4984708;28;20474;-74
2023/01/03 13:16:49;;;;;;;2.33;1.00;;;12.80;69.00;;;;;;4984891;28;20034;-74
2023/01/03 13:19:34;;;;;;;0.60;0.60;;;12.90;63.80;;;;;;4975994;28;20218;-74
2023/01/03 13:22:01;;;;;;;0.47;0.47;;;;;;;;;;4907951;29;20047;-73
2023/01/03 13:24:49;;;;;;;6.13;0.63;;;12.90;63.50;;;;;;4907434;29;20581;-76
2023/01/03 13:27:15;;;;;;;1.05;0.70;;;;;;;;;;4907562;29;20028;-75
2023/01/03 13:29:44;;;;;;;0.60;0.60;;;12.80;64.40;;;;;;4908042;29;20831;-74
2023/01/03 13:32:23;;;;;;;2.20;1.02;;;12.80;65.20;;;;;;4907906;29;20064;-74
2023/01/03 13:35:15;;;;;;;0.70;0.70;;;12.80;70.40;;;;;;4891742;29;20031;-75
2023/01/03 13:37:46;;;;;;;1.08;0.77;;;11.80;65.40;;;;;;4861890;29;20072;-75
2023/01/03 13:40:43;;;;;;;0.68;0.68;;;12.80;66.50;;;;;;4869667;29;20033;-76
2023/01/03 13:43:21;;;;;;;0.70;0.70;;;12.80;66.60;;;;;;4914062;29;20052;-77
2023/01/03 13:45:53;;;;;;;0.90;0.70;;;12.70;67.50;;;;;;4918191;29;20040;-77
2023/01/03 13:48:21;;;;;;;1.08;0.70;;;13.20;72.80;;;;;;4926050;29;20043;-77
2023/01/03 13:51:24;;;;;;;3.00;1.20;;;12.80;68.10;;;;;;4926434;29;20102;-78
2023/01/03 13:53:59;;;;;;;0.68;0.68;;;12.80;68.50;;;;;;4917040;29;20035;-78
2023/01/03 13:56:53;;;;;;;3.03;1.13;;;12.80;68.50;;;;;;4925512;29;20087;-75
2023/01/03 13:59:19;;;;;;;3.33;0.90;;;;;;;;;;4969447;28;20108;-75
2023/01/03 14:01:59;;;;;;;0.60;0.60;;;12.90;68.70;;;;;;5003240;28;20406;-75
2023/01/03 14:04:45;;;;;;;1.05;0.88;;;12.90;68.60;;;;;;5003337;28;20041;-75
2023/01/03 14:07:29;;;;;;;1.55;0.63;;;12.70;74.80;;;;;;4995232;28;20026;-75
2023/01/03 14:10:13;;;;;;;1.80;0.73;;;12.80;69.10;;;;;;5002663;28;20032;-74
2023/01/03 14:13:06;;;;;;;1.35;0.60;;;12.80;69.30;;;;;;5003571;28;20037;-74
2023/01/03 14:15:33;;;;;;;1.02;0.93;;;12.70;69.50;;;;;;5035810;28;20515;-74
2023/01/03 14:18:24;;;;;;;1.00;0.80;;;12.70;69.90;;;;;;5045512;28;20090;-74
2023/01/03 14:20:53;;;;;;;0.63;0.50;;;12.70;69.60;;;;;;5044565;28;20033;-75
2023/01/03 14:23:22;;;;;;;0.80;0.80;;;12.60;70.30;;;;;;5045840;28;20102;-76
2023/01/03 14:25:49;;;;;;;1.27;1.10;;;12.50;77.20;;;;;;5045363;28;20028;-77
2023/01/03 14:28:31;;;;;;;1.00;0.63;;;12.50;71.40;;;;;;5045823;28;20020;-76
2023/01/03 14:31:05;;;;;;;0.68;0.65;;;12.40;71.60;;;;;;5045506;28;20017;-74
2023/01/03 14:33:36;;;;;;;1.20;1.10;;;12.30;72.20;;;;;;5045172;28;20025;-74
2023/01/03 14:36:07;;;;;;;2.33;0.73;;;12.30;73.00;;;;;;5045740;28;20071;-74
2023/01/03 14:38:34;;;;;;;1.50;0.70;;;12.20;73.10;;;;;;5045598;28;20455;-74
2023/01/03 14:41:01;;;;;;;0.55;0.50;;;12.40;84.20;;;;;;5045301;28;20104;-73
2023/01/03 14:43:30;;;;;;;0.55;0.55;;;12.10;74.20;;;;;;5042939;28;20126;-75
2023/01/03 14:45:59;;;;;;;0.73;0.73;;;12.30;82.80;;;;;;5045929;28;20033;-74
2023/01/03 14:48:25;;;;;;;1.05;0.60;;;;;;;;;;5044877;28;20028;-74
2023/01/03 14:50:52;;;;;;;1.52;0.88;;;11.80;75.70;;;;;;5045350;28;20039;-74
2023/01/03 14:53:18;;;;;;;0.65;0.60;;;;;;;;;;5045516;28;20024;-73